Time;durP1;ratioP1;P1;durP2;ratioP2;P2;SDS_P1;SDS_P2;PMS_P1;PMS_P2;Temp;Humidity;BMP_temperature;BMP_pressure;BME280_temperature;BME280_humidity;BME280_pressure;Samples;Min_cycle;Max_cycle;Signal;HPM_P1;HPM_P2
2022/06/17 00:01:26;;;;;;;2.55;0.93;;;;;;;16.83;46.92;101246.06;5041622;28;20041;-72
2022/06/17 00:03:52;;;;;;;3.67;1.10;;;;;;;16.84;46.82;101239.81;5045090;28;20128;-72
2022/06/17 00:06:20;;;;;;;3.30;0.90;;;;;;;16.82;47.00;101241.63;5042106;28;20107;-72
2022/06/17 00:08:49;;;;;;;1.27;0.75;;;;;;;16.81;47.15;101235.44;5043350;28;20039;-72
2022/06/17 00:11:27;;;;;;;5.78;0.80;;;;;;;16.80;47.48;101248.81;5043321;28;20037;-73
2022/06/17 00:13:52;;;;;;;34.55;1.90;;;;;;;16.72;47.29;101245.38;5038513;28;20030;-72
2022/06/17 00:16:21;;;;;;;4.93;1.13;;;;;;;16.70;47.37;101249.88;5043532;28;20395;-72
2022/06/17 00:18:46;;;;;;;1.67;0.80;;;;;;;16.70;47.33;101247.19;5043925;28;20072;-72
2022/06/17 00:21:37;;;;;;;1.75;0.70;;;;;;;16.68;47.30;101243.69;5041113;28;20073;-72
2022/06/17 00:24:13;;;;;;;3.10;0.95;;;;;;;16.67;47.19;101247.28;5043152;28;20024;-72
2022/06/17 00:26:39;;;;;;;1.70;0.65;;;;;;;16.65;47.34;101245.50;5036111;28;20059;-72
2022/06/17 00:29:04;;;;;;;3.55;0.90;;;;;;;16.64;47.47;101248.22;5041249;28;20119;-72
2022/06/17 00:31:29;;;;;;;4.07;0.93;;;;;;;16.61;47.37;101254.47;5043194;28;20182;-72
2022/06/17 00:33:54;;;;;;;1.70;0.70;;;;;;;16.63;47.40;101252.63;5040072;28;20077;-73
2022/06/17 00:36:20;;;;;;;2.95;0.85;;;;;;;16.62;47.48;101250.88;5043135;28;20049;-73
2022/06/17 00:38:46;;;;;;;2.72;1.15;;;;;;;16.65;47.37;101249.94;5040007;28;20052;-72
2022/06/17 00:41:13;;;;;;;3.33;1.00;;;;;;;16.71;47.13;101244.50;5043065;28;20044;-72
2022/06/17 00:43:40;;;;;;;3.00;1.15;;;;;;;16.70;47.63;101239.22;5041350;28;20029;-73
2022/06/17 00:46:24;;;;;;;2.65;0.75;;;;;;;16.70;47.35;101236.53;5041676;28;20116;-72
2022/06/17 00:49:00;;;;;;;1.77;0.85;;;;;;;16.62;48.31;101245.56;5055564;28;20603;-72
2022/06/17 00:51:30;;;;;;;1.85;0.80;;;;;;;16.56;48.44;101244.81;5036909;28;20403;-73
2022/06/17 00:54:01;;;;;;;3.53;1.05;;;;;;;16.52;48.44;101254.63;5041063;28;20033;-73
2022/06/17 00:56:33;;;;;;;3.05;1.00;;;;;;;16.44;48.85;101253.91;5043763;28;20503;-73
2022/06/17 00:59:07;;;;;;;3.40;0.73;;;;;;;16.42;48.74;101253.94;5037664;28;20033;-72
2022/06/17 01:01:50;;;;;;;3.42;0.85;;;;;;;16.38;48.53;101246.91;5041015;28;20583;-72
2022/06/17 01:04:20;;;;;;;2.45;0.70;;;;;;;16.34;49.13;101260.31;5053589;28;20095;-72
2022/06/17 01:07:00;;;;;;;2.17;0.60;;;;;;;16.19;49.95;101270.34;5041411;28;20484;-72
2022/06/17 01:12:19;;;;;;;2.85;1.17;;;;;;;16.01;51.09;101265.34;5038855;28;20033;-73
2022/06/17 01:14:44;;;;;;;2.97;0.70;;;;;;;16.03;50.75;101267.97;5041380;28;20042;-72
2022/06/17 01:17:13;;;;;;;1.67;0.70;;;;;;;16.04;50.55;101267.94;5041990;28;20040;-73
2022/06/17 01:19:47;;;;;;;1.52;0.73;;;;;;;16.02;50.50;101258.22;5019427;28;20496;-72
2022/06/17 01:22:25;;;;;;;1.17;0.70;;;;;;;15.98;50.68;101268.03;5041179;28;20124;-73
2022/06/17 01:25:00;;;;;;;1.63;0.70;;;;;;;15.94;50.91;101271.66;5019657;28;20041;-72
2022/06/17 01:27:31;;;;;;;3.53;0.80;;;;;;;15.87;50.89;101278.84;5042494;28;20067;-73
2022/06/17 01:29:57;;;;;;;3.75;1.10;;;;;;;15.77;51.28;101274.59;5038896;28;20053;-73
2022/06/17 01:32:27;;;;;;;3.25;0.90;;;;;;;15.70;51.39;101272.94;5040847;28;20029;-72
2022/06/17 01:34:53;;;;;;;2.75;0.95;;;;;;;15.57;51.63;101275.75;5025135;28;20055;-72
2022/06/17 01:37:20;;;;;;;1.70;0.77;;;;;;;15.50;51.62;101279.41;5040703;28;20571;-72
2022/06/17 01:39:45;;;;;;;2.22;0.90;;;;;;;15.44;51.90;101282.16;5041837;28;20036;-72
2022/06/17 01:42:11;;;;;;;1.90;0.77;;;;;;;15.41;52.07;101281.31;5039285;28;20133;-72
2022/06/17 01:44:40;;;;;;;1.58;0.70;;;;;;;15.36;52.00;101285.84;5041399;28;20549;-72
2022/06/17 01:47:13;;;;;;;3.50;1.00;;;;;;;15.31;52.32;101276.13;5040024;28;20037;-72
2022/06/17 01:49:53;;;;;;;3.05;1.00;;;;;;;15.23;52.71;101275.34;5038510;28;20033;-72
2022/06/17 01:52:27;;;;;;;3.95;1.23;;;;;;;15.16;52.93;101281.66;5033447;28;20025;-72
2022/06/17 01:55:04;;;;;;;5.25;1.00;;;;;;;15.05;53.41;101284.44;5034930;28;20053;-72
2022/06/17 01:57:39;;;;;;;2.35;0.82;;;;;;;15.01;53.62;101281.84;5039597;28;20037;-72
2022/06/17 02:00:16;;;;;;;2.67;0.90;;;;;;;14.96;53.02;101289.88;5036527;28;20496;-72
2022/06/17 02:02:46;;;;;;;2.47;0.80;;;;;;;14.90;54.00;101298.78;5038350;28;20026;-72
2022/06/17 02:05:12;;;;;;;1.75;0.85;;;;;;;14.79;54.55;101298.03;5040720;28;20121;-72
2022/06/17 02:07:46;;;;;;;4.38;0.93;;;;;;;14.72;54.43;101293.69;5042337;28;20491;-72
2022/06/17 02:10:12;;;;;;;1.88;0.75;;;;;;;14.59;54.46;101295.63;5040344;28;20029;-72
2022/06/17 02:12:38;;;;;;;2.35;0.70;;;;;;;14.50;55.33;101303.63;5037959;28;20048;-72
2022/06/17 02:15:08;;;;;;;4.10;1.00;;;;;;;14.41;55.14;101301.97;5041594;28;20028;-72
2022/06/17 02:18:01;;;;;;;;;;;;;;;14.27;55.87;101306.50;5036762;28;20481;-72
2022/06/17 02:20:36;;;;;;;2.88;0.80;;;;;;;14.23;55.51;101307.44;5039170;28;19940;-72
2022/06/17 02:23:02;;;;;;;6.13;1.10;;;;;;;14.13;55.96;101309.28;5037777;28;20055;-72
2022/06/17 02:25:34;;;;;;;2.38;1.00;;;;;;;14.05;56.70;101305.81;5038059;28;20464;-72
2022/06/17 02:28:01;;;;;;;2.20;0.80;;;;;;;14.01;56.92;101302.28;5039961;28;20029;-72
2022/06/17 02:30:29;;;;;;;2.75;1.17;;;;;;;13.98;56.74;101312.06;5040503;28;20079;-73
2022/06/17 02:32:59;;;;;;;2.65;1.23;;;;;;;13.92;56.79;101299.72;5037201;28;20037;-72
2022/06/17 02:35:47;;;;;;;4.63;1.33;;;;;;;13.87;57.20;101312.16;5036683;28;20048;-72
2022/06/17 02:38:17;;;;;;;4.95;1.10;;;;;;;13.83;56.80;101305.09;5021345;28;20037;-72
2022/06/17 02:40:47;;;;;;;2.20;1.00;;;;;;;13.74;57.07;101303.38;5043520;28;20033;-72
2022/06/17 02:43:19;;;;;;;2.55;0.80;;;;;;;13.70;57.38;101303.41;5043268;28;20076;-72
2022/06/17 02:45:51;;;;;;;5.80;1.42;;;;;;;13.59;57.96;101308.78;5053277;28;20030;-72
2022/06/17 02:48:24;;;;;;;3.00;1.08;;;;;;;13.51;58.26;101321.22;5044767;28;20032;-72
2022/06/17 02:50:52;;;;;;;4.38;0.98;;;;;;;13.38;59.57;101315.97;5046305;28;20099;-72
2022/06/17 02:53:23;;;;;;;3.70;1.17;;;;;;;13.32;59.74;101320.44;5041797;28;20036;-72
2022/06/17 02:55:50;;;;;;;1.90;1.00;;;;;;;13.13;60.11;101325.78;5043165;28;20037;-72
2022/06/17 02:58:35;;;;;;;2.47;1.00;;;;;;;12.97;60.62;101324.09;5045509;28;20073;-73
2022/06/17 03:01:01;;;;;;;2.53;1.10;;;;;;;12.90;60.97;101323.22;5042873;28;20033;-72
2022/06/17 03:03:27;;;;;;;4.80;1.60;;;;;;;12.82;62.42;101316.19;5042034;28;20029;-72
2022/06/17 03:05:53;;;;;;;3.95;1.35;;;;;;;12.78;61.90;101319.72;5044770;28;20107;-72
2022/06/17 03:08:26;;;;;;;2.85;1.48;;;;;;;12.78;62.56;101327.66;5041502;28;20121;-72
2022/06/17 03:10:56;;;;;;;4.53;1.40;;;;;;;12.84;62.03;101323.25;5042593;28;20033;-72
2022/06/17 03:13:35;;;;;;;5.05;1.35;;;;;;;12.91;61.80;101318.78;5044414;28;20115;-72
2022/06/17 03:16:04;;;;;;;2.88;1.15;;;;;;;12.93;61.37;101322.31;5042111;28;20045;-72
2022/06/17 03:18:31;;;;;;;5.13;1.25;;;;;;;12.92;62.06;101324.09;5038533;28;20626;-72
2022/06/17 03:20:58;;;;;;;3.47;1.10;;;;;;;12.96;62.15;101322.31;5043935;28;20064;-72
2022/06/17 03:23:30;;;;;;;1.70;0.90;;;;;;;13.02;61.56;101324.97;5042448;28;20033;-72
2022/06/17 03:26:06;;;;;;;3.85;1.10;;;;;;;13.02;62.23;101322.31;5046565;28;20033;-72
2022/06/17 03:28:39;;;;;;;2.80;1.30;;;;;;;13.06;62.09;101312.56;5021492;28;20030;-72
2022/06/17 03:31:13;;;;;;;3.97;1.25;;;;;;;13.16;61.41;101317.81;5042237;28;20038;-72
2022/06/17 03:33:46;;;;;;;2.10;1.10;;;;;;;13.32;60.89;101326.63;5040722;28;20039;-72
2022/06/17 03:36:21;;;;;;;6.53;1.30;;;;;;;13.42;60.62;101332.75;5043002;28;20037;-72
2022/06/17 03:38:51;;;;;;;2.28;1.15;;;;;;;13.48;60.55;101343.31;5044005;28;20567;-72
2022/06/17 03:41:34;;;;;;;5.03;1.52;;;;;;;13.53;60.07;101338.88;5041053;28;20025;-72
2022/06/17 03:44:09;;;;;;;4.28;1.45;;;;;;;13.61;59.96;101333.53;5040701;28;20037;-72
2022/06/17 03:46:45;;;;;;;3.60;1.30;;;;;;;13.68;59.60;101334.41;5042313;28;20495;-72
2022/06/17 03:49:18;;;;;;;3.42;1.35;;;;;;;13.76;59.23;101337.88;5042689;28;20037;-72
2022/06/17 03:51:44;;;;;;;3.00;1.40;;;;;;;13.81;58.93;101338.72;5042912;28;20459;-73
2022/06/17 03:54:16;;;;;;;2.95;1.27;;;;;;;13.85;59.14;101344.88;5030114;28;20144;-72
2022/06/17 03:56:50;;;;;;;3.28;1.25;;;;;;;13.89;59.16;101350.16;5032631;28;20039;-72
2022/06/17 03:59:21;;;;;;;2.58;1.20;;;;;;;13.98;58.73;101346.56;5042238;28;20433;-72
2022/06/17 04:01:58;;;;;;;4.57;1.15;;;;;;;14.03;58.73;101350.94;5040247;28;20061;-72
2022/06/17 04:04:28;;;;;;;4.35;1.70;;;;;;;14.14;58.52;101339.38;5054118;28;20080;-72
2022/06/17 04:06:56;;;;;;;5.97;2.83;;;;;;;14.26;58.36;101349.91;5040038;28;20491;-72
2022/06/17 04:09:27;;;;;;;;;;;;;;;14.38;57.64;101354.19;5036766;28;20037;-72
2022/06/17 04:11:58;;;;;;;2.78;1.08;;;;;;;14.54;57.30;101357.63;5042073;28;19966;-72
2022/06/17 04:14:30;;;;;;;3.53;1.25;;;;;;;14.65;56.63;101354.00;5042468;28;20033;-72
2022/06/17 04:17:11;;;;;;;2.58;1.13;;;;;;;14.79;56.06;101355.63;5035742;28;20116;-72
2022/06/17 04:19:44;;;;;;;4.05;1.70;;;;;;;14.89;56.00;101363.50;5040592;28;20400;-72
2022/06/17 04:22:20;;;;;;;6.68;2.05;;;;;;;15.04;56.06;101364.22;5051320;28;20030;-72
2022/06/17 04:25:43;;;;;;;6.25;2.63;;;;;;;15.13;55.60;101364.09;5036357;28;20176;-72
2022/06/17 04:28:14;;;;;;;6.70;2.13;;;;;;;15.21;55.17;101367.56;5059091;28;20029;-72
2022/06/17 04:30:47;;;;;;;3.20;1.20;;;;;;;15.27;55.34;101364.84;5022871;28;20508;-72
2022/06/17 04:33:34;;;;;;;3.53;1.20;;;;;;;15.35;55.28;101367.38;5040290;28;20388;-72
2022/06/17 04:36:03;;;;;;;4.45;1.35;;;;;;;15.47;54.61;101371.69;5019016;28;20137;-72
2022/06/17 04:38:44;;;;;;;2.17;1.00;;;;;;;15.49;54.63;101372.53;5039503;28;20037;-72
2022/06/17 04:41:29;;;;;;;3.95;1.08;;;;;;;15.53;54.91;101376.91;5039102;28;20026;-72
2022/06/17 04:44:05;;;;;;;3.13;1.40;;;;;;;15.56;54.46;101374.19;5040526;28;20025;-72
2022/06/17 04:46:34;;;;;;;4.13;1.10;;;;;;;15.66;54.34;101377.63;5042984;28;20108;-72
2022/06/17 04:49:03;;;;;;;2.25;1.00;;;;;;;15.68;54.25;101379.38;5040112;28;20504;-72
2022/06/17 04:51:34;;;;;;;2.97;1.40;;;;;;;15.77;54.35;101375.72;5040113;28;20607;-72
2022/06/17 04:54:03;;;;;;;4.03;1.08;;;;;;;15.82;54.12;101384.53;5039620;28;20037;-72
2022/06/17 04:56:58;;;;;;;2.20;1.00;;;;;;;15.86;53.80;101390.69;5023650;28;20036;-72
2022/06/17 04:59:31;;;;;;;2.45;0.90;;;;;;;16.04;53.96;101393.09;5040661;28;20032;-72
2022/06/17 05:01:59;;;;;;;5.18;1.60;;;;;;;16.14;53.85;101402.72;5041204;28;20037;-72
2022/06/17 05:04:46;;;;;;;3.65;1.30;;;;;;;16.24;53.09;101398.09;5039870;28;20033;-72
2022/06/17 05:07:15;;;;;;;3.90;1.13;;;;;;;16.36;52.98;101394.38;5040595;28;20068;-72
2022/06/17 05:09:59;;;;;;;4.03;1.20;;;;;;;16.41;52.68;101384.50;5020406;28;20087;-72
2022/06/17 05:12:38;;;;;;;2.50;1.10;;;;;;;16.51;52.11;101388.78;5038404;28;20041;-72
2022/06/17 05:15:12;;;;;;;3.42;1.40;;;;;;;16.62;51.76;101389.47;5040355;28;20507;-72
2022/06/17 05:17:38;;;;;;;3.42;1.30;;;;;;;16.77;51.33;101384.78;5039210;28;20041;-72
2022/06/17 05:20:10;;;;;;;3.15;1.10;;;;;;;16.91;51.19;101379.22;5043015;28;20403;-72
2022/06/17 05:22:39;;;;;;;3.30;1.00;;;;;;;17.02;51.43;101375.44;5040416;28;20037;-72
2022/06/17 05:25:17;;;;;;;5.72;1.08;;;;;;;17.15;51.48;101380.53;5039039;28;20029;-72
2022/06/17 05:27:43;;;;;;;3.10;1.00;;;;;;;17.27;50.87;101389.19;5040394;28;20490;-72
2022/06/17 05:30:09;;;;;;;2.10;0.82;;;;;;;17.29;50.15;101384.69;5041223;28;20053;-72
2022/06/17 05:32:40;;;;;;;4.88;1.13;;;;;;;17.38;50.16;101382.75;5038047;28;20025;-72
2022/06/17 05:35:06;;;;;;;3.80;1.00;;;;;;;17.44;49.93;101372.81;5041501;28;20483;-72
2022/06/17 05:37:31;;;;;;;3.60;1.10;;;;;;;17.52;49.79;101368.19;5040719;28;20104;-72
2022/06/17 05:39:59;;;;;;;3.50;1.15;;;;;;;17.61;49.20;101368.91;5040598;28;20040;-72
2022/06/17 05:42:27;;;;;;;4.20;1.10;;;;;;;17.70;49.53;101379.38;5038461;28;20037;-72
2022/06/17 05:44:53;;;;;;;3.88;1.13;;;;;;;17.78;48.77;101373.88;5041618;28;20028;-72
2022/06/17 05:47:39;;;;;;;3.85;0.88;;;;;;;17.84;48.75;101380.00;5041540;28;20499;-72
2022/06/17 05:50:22;;;;;;;;;;;;;;;17.89;48.22;101378.09;5039484;28;20123;-72
2022/06/17 05:53:11;;;;;;;4.25;1.05;;;;;;;18.08;47.94;101383.00;5029300;28;19921;-72
2022/06/17 05:55:50;;;;;;;;;;;;;;;18.13;48.29;101386.41;5025017;28;20502;-72
2022/06/17 05:58:16;;;;;;;4.43;1.00;;;;;;;18.25;46.87;101371.91;5039975;28;19967;-72
2022/06/17 06:00:42;;;;;;;5.30;0.98;;;;;;;18.29;46.77;101370.94;5040514;28;20068;-73
2022/06/17 06:03:15;;;;;;;4.40;1.35;;;;;;;18.37;46.55;101369.81;5039328;28;20104;-72
2022/06/17 06:05:40;;;;;;;4.88;1.10;;;;;;;18.46;46.70;101368.69;5033580;28;20087;-72
2022/06/17 06:08:11;;;;;;;4.90;1.10;;;;;;;18.59;46.62;101372.78;5039204;28;20029;-73
2022/06/17 06:10:39;;;;;;;3.30;1.00;;;;;;;18.72;46.21;101376.03;5034207;28;20586;-72
2022/06/17 06:13:05;;;;;;;3.13;0.80;;;;;;;18.80;45.80;101384.75;5036747;28;20052;-72
2022/06/17 06:15:38;;;;;;;3.88;1.17;;;;;;;18.95;45.86;101395.97;5020881;28;20032;-72
2022/06/17 06:18:17;;;;;;;4.05;0.95;;;;;;;19.08;45.79;101400.06;5041293;28;20041;-72
2022/06/17 06:20:43;;;;;;;3.10;0.85;;;;;;;19.20;45.63;101404.19;5018609;28;20037;-72
2022/06/17 06:23:09;;;;;;;4.65;0.80;;;;;;;19.38;45.59;101402.78;5035395;28;20029;-72
2022/06/17 06:25:35;;;;;;;2.72;0.82;;;;;;;19.42;44.67;101399.13;5032913;28;20072;-72
2022/06/17 06:28:09;;;;;;;2.78;0.60;;;;;;;19.40;43.60;101408.97;5041787;28;20102;-72
2022/06/17 06:30:34;;;;;;;3.17;1.20;;;;;;;19.55;43.62;101413.91;5019496;28;20037;-72
2022/06/17 06:33:02;;;;;;;4.07;0.85;;;;;;;19.59;43.45;101407.50;5039703;28;20410;-73
2022/06/17 06:35:34;;;;;;;2.85;0.80;;;;;;;19.67;44.66;101413.53;5040233;28;20627;-72
2022/06/17 06:38:03;;;;;;;3.58;0.95;;;;;;;19.70;44.40;101405.44;5037535;28;20034;-72
2022/06/17 06:40:30;;;;;;;2.88;1.02;;;;;;;19.77;44.30;101413.28;5040749;28;20533;-72
2022/06/17 06:42:56;;;;;;;8.07;0.80;;;;;;;19.96;43.72;101411.78;5039792;28;20032;-73
2022/06/17 06:45:42;;;;;;;3.13;0.68;;;;;;;20.02;43.10;101421.47;5036821;28;20142;-72
2022/06/17 06:48:08;;;;;;;4.35;1.00;;;;;;;20.03;43.09;101418.72;5039566;28;20064;-72
2022/06/17 06:50:35;;;;;;;8.75;1.25;;;;;;;20.06;42.92;101409.69;5040021;28;20044;-73
2022/06/17 06:53:01;;;;;;;2.67;0.80;;;;;;;20.11;42.33;101410.44;5038327;28;20119;-72
2022/06/17 06:55:28;;;;;;;3.13;0.82;;;;;;;20.14;42.85;101408.50;5041134;28;20076;-72
2022/06/17 06:58:00;;;;;;;2.35;0.90;;;;;;;20.28;42.49;101423.31;5038338;28;20061;-73
2022/06/17 07:00:26;;;;;;;;;;;;;;;20.17;42.39;101420.06;5040772;28;20047;-72
2022/06/17 07:02:52;;;;;;;2.10;1.08;;;;;;;20.27;42.28;101416.16;5039922;28;19913;-72
2022/06/17 07:05:18;;;;;;;3.95;0.88;;;;;;;20.27;41.94;101421.53;5037813;28;20569;-73
2022/06/17 07:07:43;;;;;;;7.18;1.67;;;;;;;20.42;42.41;101410.31;5040676;28;20032;-72
2022/06/17 07:10:14;;;;;;;7.10;1.60;;;;;;;20.60;42.10;101422.25;5039535;28;20113;-72
2022/06/17 07:12:40;;;;;;;3.73;1.23;;;;;;;20.67;42.03;101421.13;5039417;28;20060;-72
2022/06/17 07:15:06;;;;;;;3.53;1.42;;;;;;;20.69;41.70;101421.06;5041735;28;20484;-72
2022/06/17 07:17:31;;;;;;;4.60;1.70;;;;;;;20.71;41.90;101420.09;5038688;28;20488;-73
2022/06/17 07:19:57;;;;;;;6.53;1.40;;;;;;;20.85;41.67;101422.28;5041953;28;20060;-72
2022/06/17 07:22:22;;;;;;;2.67;0.85;;;;;;;21.02;41.39;101436.00;5039021;28;20041;-73
2022/06/17 07:24:49;;;;;;;2.33;0.70;;;;;;;21.01;40.99;101431.56;5044195;28;20025;-73
2022/06/17 07:27:14;;;;;;;2.80;0.82;;;;;;;21.11;41.02;101432.09;5044580;28;20056;-73
2022/06/17 07:29:39;;;;;;;3.70;1.20;;;;;;;21.06;41.31;101443.94;5043083;28;20507;-72
2022/06/17 07:32:05;;;;;;;4.85;1.25;;;;;;;21.13;40.78;101434.75;5044926;28;20317;-73
2022/06/17 07:34:30;;;;;;;4.10;0.70;;;;;;;21.07;40.94;101446.59;5038550;28;20049;-73
2022/06/17 07:39:54;;;;;;;2.55;0.80;;;;;;;21.14;40.74;101428.44;5045311;28;20032;-73
2022/06/17 07:42:26;;;;;;;2.45;0.90;;;;;;;21.28;41.08;101442.25;5044023;28;20082;-73
2022/06/17 07:44:52;;;;;;;6.88;1.20;;;;;;;21.35;40.92;101442.88;5038535;28;20563;-73
2022/06/17 07:47:21;;;;;;;2.92;1.15;;;;;;;21.43;40.44;101441.72;5044684;28;20041;-72
2022/06/17 07:49:46;;;;;;;3.70;1.20;;;;;;;21.54;40.91;101432.41;5043864;28;20403;-73
2022/06/17 07:52:12;;;;;;;4.80;1.05;;;;;;;21.69;40.60;101437.16;5040421;28;20048;-72
2022/06/17 07:54:38;;;;;;;3.63;0.90;;;;;;;21.85;39.54;101440.13;5043188;28;20053;-73
2022/06/17 07:57:04;;;;;;;3.13;0.80;;;;;;;21.76;39.07;101440.50;5041769;28;20033;-72
2022/06/17 07:59:29;;;;;;;2.80;0.88;;;;;;;21.82;39.41;101446.53;5044794;28;20093;-73
2022/06/17 08:01:54;;;;;;;3.13;1.15;;;;;;;21.79;39.50;101452.00;5042090;28;20059;-72
2022/06/17 08:04:20;;;;;;;1.85;0.60;;;;;;;21.96;38.66;101458.56;5043701;28;20120;-73
2022/06/17 08:06:49;;;;;;;2.50;1.00;;;;;;;21.85;39.02;101462.53;5044049;28;20053;-73
2022/06/17 08:09:20;;;;;;;3.80;1.17;;;;;;;21.91;39.52;101450.66;5038873;28;20496;-73
2022/06/17 08:11:47;;;;;;;2.97;1.17;;;;;;;22.07;38.91;101456.31;5043497;28;20045;-73
2022/06/17 08:14:13;;;;;;;3.15;0.93;;;;;;;22.10;38.12;101456.19;5035724;28;20397;-72
2022/06/17 08:16:39;;;;;;;3.70;1.00;;;;;;;22.10;38.59;101440.06;5043991;28;20107;-72
2022/06/17 08:19:04;;;;;;;4.10;0.98;;;;;;;;;;5041832;28;20033;-72
2022/06/17 08:21:30;;;;;;;3.92;0.90;;;;;;;22.35;38.03;101450.75;5043996;28;20043;-73
2022/06/17 08:23:56;;;;;;;1.90;0.68;;;;;;;22.63;37.97;101460.34;5037892;28;20029;-72
2022/06/17 08:26:21;;;;;;;3.22;0.80;;;;;;;22.88;36.62;101455.69;5043886;28;20037;-72
2022/06/17 08:28:46;;;;;;;3.65;0.88;;;;;;;22.75;36.39;101455.34;5041458;28;20064;-73
2022/06/17 08:31:12;;;;;;;2.92;1.23;;;;;;;22.91;37.08;101455.56;5041918;28;20040;-73
2022/06/17 08:33:37;;;;;;;3.55;1.15;;;;;;;23.08;36.08;101452.19;5037417;28;20029;-72
2022/06/17 08:36:10;;;;;;;3.17;1.25;;;;;;;23.22;36.58;101458.78;5043722;28;20029;-72
2022/06/17 08:38:39;;;;;;;2.10;0.63;;;;;;;22.89;35.68;101472.72;5038929;28;20124;-72
2022/06/17 08:41:35;;;;;;;3.20;0.98;;;;;;;22.48;35.99;101468.13;5041662;28;20032;-72
2022/06/17 08:44:28;;;;;;;4.20;0.88;;;;;;;22.54;36.57;101461.63;5039643;28;20143;-72
2022/06/17 08:47:25;;;;;;;3.30;0.82;;;;;;;22.78;36.07;101442.69;5044003;28;20051;-72
2022/06/17 08:50:15;;;;;;;3.90;1.27;;;;;;;22.92;37.34;101456.44;5038380;28;20065;-72
2022/06/17 08:52:59;;;;;;;4.07;1.10;;;;;;;23.14;36.11;101459.97;5038080;28;20479;-72
2022/06/17 08:55:42;;;;;;;2.75;0.93;;;;;;;23.09;36.00;101463.81;5043939;28;20029;-72
2022/06/17 08:58:43;;;;;;;2.42;0.80;;;;;;;23.16;36.33;101466.19;5043709;28;20075;-72
2022/06/17 09:01:42;;;;;;;3.63;1.02;;;;;;;23.53;35.40;101456.44;5037555;28;20044;-73
2022/06/17 09:04:14;;;;;;;3.22;1.00;;;;;;;23.71;34.74;101446.66;5040956;28;20515;-73
2022/06/17 09:07:06;;;;;;;4.38;0.90;;;;;;;23.81;34.76;101457.88;5039555;28;20111;-73
2022/06/17 09:09:44;;;;;;;3.30;1.08;;;;;;;23.86;34.75;101453.16;5036617;28;20498;-72
2022/06/17 09:12:38;;;;;;;5.78;1.20;;;;;;;23.59;34.93;101452.59;5040814;28;20099;-72
2022/06/17 09:15:25;;;;;;;2.60;0.88;;;;;;;23.55;34.55;101451.88;5042689;28;20075;-72
2022/06/17 09:18:16;;;;;;;3.65;1.77;;;;;;;23.51;34.29;101463.72;5041879;28;20125;-72
2022/06/17 09:20:45;;;;;;;5.45;1.05;;;;;;;23.52;34.34;101452.00;5042449;28;20087;-72
2022/06/17 09:23:15;;;;;;;4.63;2.08;;;;;;;23.74;34.44;101446.53;5036081;28;20576;-72
2022/06/17 09:25:44;;;;;;;3.03;1.00;;;;;;;23.82;34.12;101455.13;5041967;28;20052;-72
2022/06/17 09:28:14;;;;;;;5.43;1.05;;;;;;;23.51;34.62;101444.88;5042554;28;20033;-72
2022/06/17 09:30:47;;;;;;;1.77;0.90;;;;;;;23.59;33.70;101447.22;5040155;28;20071;-72
2022/06/17 09:33:22;;;;;;;3.95;1.00;;;;;;;23.43;34.52;101446.16;5041230;28;20080;-72
2022/06/17 09:35:54;;;;;;;3.38;1.00;;;;;;;23.45;34.60;101453.25;5043417;28;20052;-72
2022/06/17 09:38:32;;;;;;;2.70;1.10;;;;;;;23.59;34.96;101431.91;5040922;28;20056;-72
2022/06/17 09:41:13;;;;;;;5.45;1.00;;;;;;;23.81;34.72;101441.72;5039513;28;20076;-72
2022/06/17 09:43:48;;;;;;;3.80;0.90;;;;;;;23.78;34.78;101440.03;5040440;28;20034;-72
2022/06/17 09:46:31;;;;;;;2.13;0.90;;;;;;;23.81;33.88;101439.03;5035691;28;20507;-72
2022/06/17 09:49:03;;;;;;;5.97;1.90;;;;;;;23.92;34.04;101439.41;5039822;28;20046;-72
2022/06/17 09:51:41;;;;;;;3.38;0.70;;;;;;;24.12;33.36;101429.47;5036856;28;20037;-73
2022/06/17 09:54:25;;;;;;;2.42;0.80;;;;;;;24.23;33.57;101421.72;5039555;28;20033;-72
2022/06/17 09:57:00;;;;;;;3.53;0.88;;;;;;;24.39;32.74;101428.13;5038744;28;20033;-72
2022/06/17 09:59:38;;;;;;;4.22;1.10;;;;;;;24.47;32.33;101419.66;5036651;28;20638;-72
2022/06/17 10:02:19;;;;;;;3.58;0.90;;;;;;;24.20;31.97;101419.19;5039502;28;20431;-72
2022/06/17 10:04:45;;;;;;;;;;;;;;;24.11;32.93;101416.94;5039415;28;20036;-72
2022/06/17 10:07:40;;;;;;;3.45;0.75;;;;;;;24.30;31.81;101420.47;5041703;28;19920;-72
2022/06/17 10:10:26;;;;;;;2.13;0.70;;;;;;;24.36;32.34;101419.31;5041537;28;20095;-72
2022/06/17 10:13:18;;;;;;;2.70;0.80;;;;;;;24.46;32.26;101409.81;5040088;28;20036;-73
2022/06/17 10:19:20;;;;;;;3.80;0.60;;;;;;;24.84;32.42;101409.72;5037342;28;20037;-73
2022/06/17 10:22:01;;;;;;;2.53;0.68;;;;;;;24.81;32.10;101404.44;5039362;28;20033;-73
2022/06/17 10:24:46;;;;;;;3.20;0.70;;;;;;;24.89;31.70;101392.31;5031586;28;20036;-73
2022/06/17 10:27:32;;;;;;;3.00;0.88;;;;;;;24.97;31.68;101391.00;5036343;28;20056;-72
2022/06/17 10:30:03;;;;;;;3.20;0.80;;;;;;;25.16;31.67;101391.84;5035719;28;20053;-72
2022/06/17 10:32:33;;;;;;;4.60;0.88;;;;;;;25.28;31.41;101388.47;5040422;28;20040;-73
2022/06/17 10:35:01;;;;;;;2.17;0.85;;;;;;;25.18;31.61;101392.63;5040338;28;20087;-73
2022/06/17 10:37:30;;;;;;;3.83;1.13;;;;;;;25.35;31.10;101386.31;5039226;28;20037;-73
2022/06/17 10:39:56;;;;;;;2.40;0.85;;;;;;;25.52;30.34;101377.28;5040363;28;20485;-72
2022/06/17 10:42:24;;;;;;;4.47;0.70;;;;;;;25.70;30.11;101368.16;5039901;28;20040;-72
2022/06/17 10:44:52;;;;;;;2.67;0.93;;;;;;;25.78;29.65;101374.00;5039744;28;20033;-73
2022/06/17 10:47:39;;;;;;;3.75;0.70;;;;;;;25.72;29.83;101368.03;5042342;28;20041;-72
2022/06/17 10:50:26;;;;;;;3.17;0.70;;;;;;;25.70;29.47;101370.84;5042072;28;20453;-72
2022/06/17 10:53:14;;;;;;;2.20;0.70;;;;;;;25.76;29.24;101366.94;5039840;28;20037;-73
2022/06/17 10:55:43;;;;;;;1.85;0.90;;;;;;;25.69;29.58;101374.50;5038390;28;20033;-73
2022/06/17 10:58:10;;;;;;;2.30;0.80;;;;;;;25.66;29.36;101363.84;5043551;28;20048;-72
2022/06/17 11:00:50;;;;;;;4.13;1.05;;;;;;;25.92;28.49;101346.19;5043609;28;20558;-73
2022/06/17 11:03:28;;;;;;;2.17;1.15;;;;;;;26.14;29.17;101359.31;5042612;28;20080;-73
2022/06/17 11:05:57;;;;;;;1.80;0.70;;;;;;;26.41;29.14;101350.56;5042284;28;20041;-73
2022/06/17 11:08:27;;;;;;;4.13;0.63;;;;;;;26.34;28.58;101354.59;5043395;28;20045;-73
2022/06/17 11:10:58;;;;;;;2.92;0.95;;;;;;;26.30;28.55;101359.28;5038568;28;20038;-73
2022/06/17 11:13:24;;;;;;;2.97;0.70;;;;;;;26.47;28.33;101352.91;5044499;28;20033;-73
2022/06/17 11:15:56;;;;;;;2.15;0.52;;;;;;;26.70;28.13;101350.66;5044810;28;20042;-73
2022/06/17 11:18:25;;;;;;;1.95;0.95;;;;;;;26.81;27.74;101348.19;5042534;28;20045;-73
2022/06/17 11:21:00;;;;;;;3.65;1.15;;;;;;;26.86;27.60;101352.34;5044724;28;20056;-72
2022/06/17 11:23:34;;;;;;;4.38;0.68;;;;;;;26.71;27.49;101336.16;5045167;28;20071;-72
2022/06/17 11:26:09;;;;;;;4.15;0.77;;;;;;;26.62;26.78;101343.88;5039690;28;20474;-73
2022/06/17 11:28:38;;;;;;;1.55;0.50;;;;;;;26.70;26.47;101334.41;5043267;28;20547;-72
2022/06/17 11:31:13;;;;;;;2.60;0.77;;;;;;;26.87;26.37;101334.25;5045021;28;20041;-72
2022/06/17 11:33:53;;;;;;;1.33;0.52;;;;;;;26.98;26.48;101329.03;5043857;28;20041;-73
2022/06/17 11:36:23;;;;;;;;;;;;;;;27.26;26.08;101328.19;5040265;28;20037;-73
2022/06/17 11:38:49;;;;;;;1.40;0.70;;;;;;;27.14;25.63;101315.38;5043982;28;19912;-72
2022/06/17 11:41:21;;;;;;;1.70;0.68;;;;;;;27.42;26.11;101319.97;5043702;28;20049;-73
2022/06/17 11:43:47;;;;;;;2.28;0.70;;;;;;;27.27;26.42;101318.22;5042031;28;20041;-73
2022/06/17 11:46:35;;;;;;;3.22;0.90;;;;;;;27.45;25.73;101319.75;5045011;28;20407;-73
2022/06/17 11:49:09;;;;;;;2.55;0.75;;;;;;;27.86;26.15;101316.22;5038622;28;20099;-73
2022/06/17 11:51:39;;;;;;;2.05;0.95;;;;;;;28.44;24.79;101310.56;5042594;28;20033;-73
2022/06/17 11:54:10;;;;;;;1.90;0.98;;;;;;;28.17;24.14;101314.16;5042736;28;20044;-73
2022/06/17 11:56:37;;;;;;;6.43;1.00;;;;;;;28.53;24.55;101323.50;5041422;28;20036;-73
2022/06/17 11:59:27;;;;;;;4.07;0.90;;;;;;;28.75;23.68;101309.31;5043417;28;20033;-73
2022/06/17 12:01:55;;;;;;;1.73;0.70;;;;;;;28.68;23.93;101308.84;5040582;28;20044;-72